Aérodrome :
LOGIN :

S'inscrire | Disclaimer

   EN    FR    IT 

 










Légende :    VFR   VFR Marginal   IFR   IFR Intensif   IFR Très Intensif
Visi : 
Plafond : 
>= 8 km
>= 3000ft
5 à 8 km
1000 à 3000 ft
1500m à 5 km
500 à 1000 ft
800 à 1500m
200 à 500 ft
< 800m
< 200 ft
Symboles :   Orages  Brouillard  Fortes neiges  Fortes précipitations  Vent > 20 kt
SIGMETs :   Divers  Orages  Givrage  Turbulence  Onde Orograph.  Cendres Volcan.







- Altitude de l'aérodrome : 220 ft
- Code IATA : CWL
- Voir les cartes d'approche


EGFF - Cardiff Rhoose

DERNIER METAR :
  • 171920Z AUTO 20003KT 9999 OVC034 07/01 Q1028

METARs EXPIRÉS :
  • 171850Z AUTO 00000KT 9999 OVC036 04/01 Q1028
  • 171820Z AUTO 30002KT 9999 BKN036 06/01 Q1029
  • 171750Z 29003KT CAVOK 06/01 Q1029
  • 171720Z AUTO 28003KT 9999 NCD 06/01 Q1029
  • 171650Z AUTO 31003KT 9999 NCD 06/02 Q1029

TAF TAF EGFF
Valide du 17 à 18h jusqu'au 18 à 18h UTC


171702Z 1718/1818 VRB04KT 9999 SCT035
BECMG 1803/1806 23010KT BKN012
TEMPO 1806/1812 6000 -RA BKN008
BECMG 1810/1813 30009KT FEW012 SCT020
PROB30
TEMPO 1813/1818 BKN012
ATIS : +44 1446 729 319
Pas de NOTAMs connus pour ce terrain.



MET'MAP, la Météo Aéronautique d'un coup d'oeil ! - Copyright ORBIFLY Décembre 2007 - Disclaimer

ORBIFLY MET'MAP TEAM :

Programmation & Développement : Alexandra Zaïnal
Conception & Développement : Baudouin d'Aumeries
Co-Programmation & Développement : Marc-Olivier Méhu
Soutien technique & logistique : Manuel Goepfert

Contact : metmap@orbifly.com




SOURCES & CREDITS :

   NOAA